Time;durP1;ratioP1;P1;durP2;ratioP2;P2;SDS_P1;SDS_P2;PMS_P1;PMS_P2;Temp;Humidity;BMP_temperature;BMP_pressure;BME280_temperature;BME280_humidity;BME280_pressure;Samples;Min_cycle;Max_cycle;Signal;HPM_P1;HPM_P2
2022/01/26 00:06:04;;;;;;;95.82;30.10;;;0.60;99.90;;;;;;5051763;28;20048;-77
2022/01/26 00:08:30;;;;;;;91.05;31.30;;;0.60;99.90;;;;;;5034120;28;20387;-78
2022/01/26 00:10:56;;;;;;;90.90;29.85;;;0.60;99.90;;;;;;5036950;28;20030;-78
2022/01/26 00:13:21;;;;;;;91.00;29.90;;;0.60;99.90;;;;;;5052577;28;20033;-77
2022/01/26 00:15:47;;;;;;;105.25;31.60;;;0.70;99.90;;;;;;5040464;28;20036;-77
2022/01/26 00:18:14;;;;;;;100.10;29.92;;;0.70;99.90;;;;;;5053987;28;20037;-78
2022/01/26 00:20:52;;;;;;;92.60;30.30;;;0.70;99.90;;;;;;5053967;28;20397;-78
2022/01/26 00:25:58;;;;;;;112.10;32.30;;;0.60;99.90;;;;;;5046585;28;20461;-77
2022/01/26 00:28:46;;;;;;;95.57;30.45;;;0.60;99.90;;;;;;5055453;28;20036;-78
2022/01/26 00:39:24;;;;;;;108.32;32.92;;;0.50;99.90;;;;;;5055464;28;20087;-78
2022/01/26 00:41:50;;;;;;;107.10;32.45;;;0.50;99.90;;;;;;5053528;28;20049;-77
2022/01/26 00:44:16;;;;;;;111.85;33.42;;;0.50;99.90;;;;;;5053318;28;20100;-76
2022/01/26 00:46:48;;;;;;;118.35;34.80;;;0.50;99.90;;;;;;5049323;28;20040;-77
2022/01/26 00:49:16;;;;;;;125.95;36.65;;;0.40;99.90;;;;;;5053258;28;20027;-77
2022/01/26 00:51:42;;;;;;;117.68;33.92;;;0.60;99.90;;;;;;5051500;28;20036;-76
2022/01/26 00:54:09;;;;;;;120.75;32.22;;;0.40;99.90;;;;;;5053101;28;20031;-76
2022/01/26 00:56:35;;;;;;;121.47;35.35;;;0.30;99.90;;;;;;5048433;28;20029;-75
2022/01/26 00:59:01;;;;;;;122.97;34.53;;;0.50;99.90;;;;;;5052139;28;20033;-75
2022/01/26 01:01:28;;;;;;;128.00;35.63;;;0.50;99.90;;;;;;5052663;28;20116;-76
2022/01/26 01:03:53;;;;;;;126.70;35.70;;;0.50;99.90;;;;;;5052840;28;20025;-76
2022/01/26 01:06:28;;;;;;;132.52;34.17;;;0.50;99.90;;;;;;5031816;28;20025;-75
2022/01/26 01:08:56;;;;;;;155.73;32.72;;;0.40;99.90;;;;;;5032645;28;20087;-76
2022/01/26 01:11:22;;;;;;;142.13;32.40;;;0.50;99.90;;;;;;5040035;28;20028;-73
2022/01/26 01:13:49;;;;;;;145.75;33.40;;;0.70;99.90;;;;;;5032558;28;20407;-76
2022/01/26 01:16:19;;;;;;;122.45;32.97;;;0.40;99.90;;;;;;5034744;28;20041;-74
2022/01/26 01:27:02;;;;;;;139.43;31.80;;;0.40;99.90;;;;;;5039942;28;20029;-76
2022/01/26 01:29:35;;;;;;;139.07;32.95;;;0.30;99.90;;;;;;5051666;28;20021;-76
2022/01/26 01:32:02;;;;;;;163.02;32.88;;;0.50;99.90;;;;;;5051871;28;20035;-76
2022/01/26 01:34:37;;;;;;;144.98;33.15;;;0.30;99.90;;;;;;5052305;28;20074;-76
2022/01/26 01:37:06;;;;;;;157.57;35.33;;;0.50;99.90;;;;;;5032376;28;20038;-76
2022/01/26 01:39:33;;;;;;;152.10;35.40;;;0.40;99.90;;;;;;5031686;28;20490;-75
2022/01/26 01:42:00;;;;;;;169.80;37.22;;;0.40;99.90;;;;;;5036430;28;20028;-76
2022/01/26 01:44:26;;;;;;;167.18;36.65;;;0.40;99.90;;;;;;5048309;28;20486;-75
2022/01/26 01:46:53;;;;;;;173.82;38.00;;;0.40;99.90;;;;;;5050741;28;20033;-76
2022/01/26 01:49:18;;;;;;;151.00;33.70;;;0.40;99.90;;;;;;5051447;28;20033;-76
2022/01/26 01:51:52;;;;;;;143.80;34.92;;;0.50;99.90;;;;;;5052054;28;20473;-75
2022/01/26 01:54:19;;;;;;;153.20;35.33;;;0.40;99.90;;;;;;5048769;28;20486;-76
2022/01/26 01:56:57;;;;;;;163.02;33.65;;;0.40;99.90;;;;;;5052069;28;20517;-76
2022/01/26 01:59:25;;;;;;;148.07;34.97;;;0.40;99.90;;;;;;5051104;28;20032;-75
2022/01/26 02:01:50;;;;;;;148.48;37.40;;;0.40;99.90;;;;;;5051334;28;20033;-76
2022/01/26 02:04:16;;;;;;;203.75;38.33;;;0.40;99.90;;;;;;5048087;28;20084;-76
2022/01/26 02:06:43;;;;;;;151.23;34.40;;;0.40;99.90;;;;;;5051784;28;20037;-76
2022/01/26 02:09:11;;;;;;;167.35;34.88;;;0.40;99.90;;;;;;5051035;28;20025;-75
2022/01/26 02:11:51;;;;;;;141.02;33.53;;;0.30;99.90;;;;;;5051539;28;20505;-76
2022/01/26 02:14:31;;;;;;;162.73;36.40;;;0.40;99.90;;;;;;5045861;28;20026;-75
2022/01/26 02:52:33;;;;;;;132.00;29.00;;;0.40;99.90;;;;;;5055435;28;20533;-76
2022/01/26 02:57:46;;;;;;;154.47;34.43;;;0.30;99.90;;;;;;5055497;28;20029;-76
2022/01/26 03:03:10;;;;;;;121.00;29.48;;;0.30;99.90;;;;;;5043781;28;20041;-75
2022/01/26 03:05:34;;;;;;;151.95;32.35;;;0.40;99.90;;;;;;5049120;28;20441;-77
2022/01/26 03:08:05;;;;;;;127.77;31.10;;;1.60;99.90;;;;;;5044975;28;20409;-76
2022/01/26 03:10:39;;;;;;;142.82;35.53;;;0.30;99.90;;;;;;5035956;28;20438;-75
2022/01/26 03:13:13;;;;;;;143.40;31.75;;;0.20;99.90;;;;;;5034871;28;20104;-76
2022/01/26 03:15:44;;;;;;;142.73;32.72;;;0.30;99.90;;;;;;5041376;28;20029;-76
2022/01/26 03:18:30;;;;;;;124.45;30.70;;;0.20;99.90;;;;;;5052319;28;20025;-76
2022/01/26 03:20:59;;;;;;;129.02;31.67;;;0.10;99.90;;;;;;5054796;28;20083;-76
2022/01/26 03:33:55;;;;;;;128.93;30.27;;;0.30;99.90;;;;;;5034767;28;20041;-75
2022/01/26 03:36:24;;;;;;;111.43;31.15;;;0.20;99.90;;;;;;5054296;28;20048;-75
2022/01/26 03:38:58;;;;;;;119.65;29.58;;;0.30;99.90;;;;;;5054318;28;20566;-76
2022/01/26 03:41:38;;;;;;;131.05;31.38;;;0.30;99.90;;;;;;5054329;28;20032;-76
2022/01/26 03:44:04;;;;;;;117.18;28.30;;;0.10;99.90;;;;;;5034834;28;20415;-75
2022/01/26 03:46:30;;;;;;;140.30;33.17;;;0.30;99.90;;;;;;5053172;28;20032;-76
2022/01/26 03:48:56;;;;;;;128.55;32.17;;;0.20;99.90;;;;;;5053871;28;20033;-76
2022/01/26 03:51:21;;;;;;;131.48;30.13;;;0.30;99.90;;;;;;5054363;28;20040;-75
2022/01/26 03:53:47;;;;;;;128.68;30.92;;;0.20;99.90;;;;;;5054016;28;20490;-76
2022/01/26 03:56:13;;;;;;;146.68;33.10;;;0.20;99.90;;;;;;5051452;28;20493;-76
2022/01/26 03:58:38;;;;;;;127.43;30.25;;;0.30;99.90;;;;;;5053295;28;20071;-75
2022/01/26 04:01:04;;;;;;;124.93;31.23;;;0.30;99.90;;;;;;5054281;28;20021;-76
2022/01/26 04:03:30;;;;;;;132.23;32.25;;;0.30;99.90;;;;;;5043932;28;20033;-73
2022/01/26 04:05:55;;;;;;;115.93;29.85;;;0.20;99.90;;;;;;5033436;28;20056;-74
2022/01/26 04:08:28;;;;;;;120.43;31.00;;;0.30;99.90;;;;;;5034271;28;20040;-73
2022/01/26 04:13:29;;;;;;;128.25;31.92;;;0.20;99.90;;;;;;5046857;28;20504;-74
2022/01/26 04:15:55;;;;;;;122.50;33.35;;;0.20;99.90;;;;;;5035388;28;20037;-74
2022/01/26 04:18:27;;;;;;;111.78;29.10;;;0.20;99.90;;;;;;5051103;28;20104;-75
2022/01/26 04:20:56;;;;;;;129.05;31.38;;;0.30;99.90;;;;;;5033878;28;20390;-74
2022/01/26 04:26:17;;;;;;;113.68;30.92;;;0.30;99.90;;;;;;5033407;28;20042;-74
2022/01/26 04:28:49;;;;;;;157.57;30.67;;;0.30;99.90;;;;;;5032912;28;20030;-73
2022/01/26 04:31:17;;;;;;;116.22;30.02;;;0.20;99.90;;;;;;5033673;28;20379;-74
2022/01/26 04:33:42;;;;;;;125.45;31.25;;;0.20;99.90;;;;;;5046908;28;20082;-74
2022/01/26 04:36:12;;;;;;;116.30;29.55;;;0.30;99.90;;;;;;5052731;28;20432;-73
2022/01/26 04:38:44;;;;;;;108.93;27.50;;;0.20;99.90;;;;;;5052820;28;20036;-74
2022/01/26 04:43:54;;;;;;;92.90;24.30;;;0.10;99.90;;;;;;5050009;28;20275;-73
2022/01/26 04:46:20;;;;;;;90.00;24.42;;;0.10;99.90;;;;;;5035541;28;20014;-74
2022/01/26 04:48:46;;;;;;;86.93;25.27;;;0.10;99.90;;;;;;5052745;28;20071;-74
2022/01/26 04:51:11;;;;;;;98.13;27.20;;;0.20;99.90;;;;;;5053160;28;20040;-75
2022/01/26 04:53:37;;;;;;;97.55;26.23;;;0.20;99.90;;;;;;5051899;28;20025;-74
2022/01/26 04:56:03;;;;;;;94.65;25.77;;;0.20;99.90;;;;;;5039150;28;20025;-76
2022/01/26 04:58:28;;;;;;;91.82;24.75;;;0.20;99.90;;;;;;5052434;28;20029;-74
2022/01/26 05:00:54;;;;;;;86.15;25.30;;;0.30;99.90;;;;;;5052933;28;20037;-75
2022/01/26 05:03:19;;;;;;;77.15;22.27;;;0.20;99.90;;;;;;5052704;28;20513;-74
2022/01/26 05:05:45;;;;;;;79.03;23.95;;;0.10;99.90;;;;;;5036576;28;20030;-74
2022/01/26 05:08:10;;;;;;;72.68;22.98;;;0.20;99.90;;;;;;5033008;28;20482;-74
2022/01/26 05:10:38;;;;;;;74.07;22.25;;;0.10;99.90;;;;;;5038996;28;20029;-75
2022/01/26 05:13:04;;;;;;;72.00;22.98;;;0.10;99.90;;;;;;5051023;28;20035;-75
2022/01/26 05:15:30;;;;;;;70.78;24.08;;;0.00;99.90;;;;;;5035817;28;20057;-73
2022/01/26 05:17:55;;;;;;;75.20;23.13;;;0.00;99.90;;;;;;5048216;28;20029;-74
2022/01/26 05:20:21;;;;;;;77.05;23.08;;;0.00;99.90;;;;;;5051113;28;20456;-74
2022/01/26 05:22:47;;;;;;;86.45;25.30;;;0.20;99.90;;;;;;5042373;28;20092;-75
2022/01/26 05:25:14;;;;;;;96.03;26.90;;;0.20;99.90;;;;;;5040334;28;20061;-75
2022/01/26 05:27:39;;;;;;;86.28;24.25;;;0.20;99.90;;;;;;5032942;28;20363;-75
2022/01/26 05:30:07;;;;;;;72.18;23.63;;;0.30;99.90;;;;;;5031657;28;20021;-74
2022/01/26 05:32:32;;;;;;;87.85;24.38;;;0.10;99.90;;;;;;5037408;28;20032;-74
2022/01/26 05:34:58;;;;;;;77.05;22.60;;;0.10;99.90;;;;;;5046537;28;20043;-74
2022/01/26 05:37:24;;;;;;;84.05;24.77;;;0.10;99.90;;;;;;5052461;28;20029;-74
2022/01/26 05:39:49;;;;;;;83.28;26.15;;;0.00;99.90;;;;;;5051770;28;20037;-75
2022/01/26 05:42:17;;;;;;;73.00;24.90;;;0.20;99.90;;;;;;5052596;28;20013;-75
2022/01/26 05:44:44;;;;;;;67.13;23.10;;;0.00;99.90;;;;;;5046990;28;20040;-74
2022/01/26 05:47:15;;;;;;;75.57;24.88;;;0.10;99.90;;;;;;5051240;28;20533;-74
2022/01/26 05:49:40;;;;;;;64.55;23.50;;;0.10;99.90;;;;;;5071954;28;20033;-74
2022/01/26 05:52:06;;;;;;;73.30;23.65;;;0.10;99.90;;;;;;5068880;28;20033;-74
2022/01/26 05:54:32;;;;;;;79.90;24.33;;;0.00;99.90;;;;;;5032657;28;20124;-74
2022/01/26 05:56:57;;;;;;;79.30;23.42;;;0.10;99.90;;;;;;5032509;28;20026;-75
2022/01/26 05:59:23;;;;;;;77.43;22.70;;;0.10;99.90;;;;;;5031512;28;20032;-74
2022/01/26 06:01:49;;;;;;;83.97;22.77;;;0.00;99.90;;;;;;5032331;28;20033;-74
2022/01/26 06:04:15;;;;;;;79.00;24.15;;;0.00;99.90;;;;;;5044875;28;20022;-74
2022/01/26 06:06:41;;;;;;;68.40;22.17;;;2.30;99.90;;;;;;5031623;28;20029;-74
2022/01/26 06:09:06;;;;;;;84.05;23.45;;;0.10;99.90;;;;;;5032649;28;20399;-77
2022/01/26 06:11:32;;;;;;;89.28;26.45;;;0.10;99.90;;;;;;5044727;28;20469;-76
2022/01/26 06:13:58;;;;;;;87.78;22.77;;;0.10;99.90;;;;;;5049909;28;20398;-77
2022/01/26 06:16:23;;;;;;;90.70;24.88;;;0.10;99.90;;;;;;5035708;28;21039;-77
2022/01/26 06:18:49;;;;;;;94.20;25.90;;;0.10;99.90;;;;;;5053363;28;20029;-76
2022/01/26 06:21:15;;;;;;;94.68;25.05;;;0.10;99.90;;;;;;5052275;28;20107;-76
2022/01/26 06:23:41;;;;;;;91.97;25.60;;;2.70;99.90;;;;;;5051346;28;20025;-75
2022/01/26 06:26:07;;;;;;;93.70;26.45;;;0.30;99.90;;;;;;5035708;28;20112;-75
2022/01/26 06:28:33;;;;;;;92.95;25.17;;;0.10;99.90;;;;;;5033090;28;20088;-74
2022/01/26 06:31:20;;;;;;;111.60;28.65;;;1.20;99.90;;;;;;5031892;28;20413;-75
2022/01/26 06:33:47;;;;;;;85.68;25.33;;;0.20;99.90;;;;;;5031888;28;20041;-76
2022/01/26 06:36:15;;;;;;;109.82;27.50;;;0.10;99.90;;;;;;5045666;28;20047;-75
2022/01/26 06:38:42;;;;;;;96.93;27.90;;;0.10;99.90;;;;;;5051225;28;20029;-76
2022/01/26 06:41:08;;;;;;;110.03;28.17;;;0.10;99.90;;;;;;5051646;28;20181;-75
2022/01/26 06:43:34;;;;;;;104.35;27.23;;;0.20;99.90;;;;;;5051524;28;20070;-76
2022/01/26 06:46:04;;;;;;;94.20;27.50;;;0.20;99.90;;;;;;5045824;28;20107;-76
2022/01/26 06:51:14;;;;;;;100.85;27.10;;;0.30;99.90;;;;;;5032168;28;20044;-76
2022/01/26 06:53:40;;;;;;;101.82;28.70;;;0.10;99.90;;;;;;5031484;28;20033;-74
2022/01/26 06:56:05;;;;;;;113.32;29.85;;;0.20;99.90;;;;;;5043555;28;20092;-74
2022/01/26 06:58:31;;;;;;;103.07;28.80;;;0.30;99.90;;;;;;5050457;28;20428;-74
2022/01/26 07:00:57;;;;;;;110.65;29.00;;;0.10;99.90;;;;;;5051185;28;20041;-74
2022/01/26 07:03:24;;;;;;;101.47;28.23;;;0.20;99.90;;;;;;5035671;28;20033;-74
2022/01/26 07:05:49;;;;;;;111.70;30.70;;;0.10;99.90;;;;;;5043047;28;20036;-74
2022/01/26 07:08:15;;;;;;;91.05;28.90;;;0.20;99.90;;;;;;5051251;28;20032;-74
2022/01/26 07:10:41;;;;;;;86.60;27.50;;;0.00;99.90;;;;;;5050751;28;20025;-74
2022/01/26 07:13:07;;;;;;;89.70;27.98;;;0.10;99.90;;;;;;5046408;28;20434;-75
2022/01/26 07:23:47;;;;;;;78.10;26.08;;;0.20;99.90;;;;;;5073084;28;20086;-74
2022/01/26 07:26:13;;;;;;;83.93;28.17;;;0.10;99.90;;;;;;5041789;28;20021;-74
2022/01/26 07:28:39;;;;;;;85.20;28.65;;;0.20;99.90;;;;;;5049699;28;20430;-74
2022/01/26 07:31:07;;;;;;;77.57;27.13;;;0.20;99.90;;;;;;5050321;28;20029;-73
2022/01/26 07:33:33;;;;;;;86.30;27.05;;;1.60;99.90;;;;;;5050682;28;20090;-74
2022/01/26 07:35:59;;;;;;;81.85;27.88;;;0.30;99.90;;;;;;5030438;28;20075;-74
2022/01/26 07:38:26;;;;;;;91.63;29.67;;;0.20;99.90;;;;;;5029979;28;20049;-74
2022/01/26 07:40:55;;;;;;;94.22;30.35;;;0.40;99.90;;;;;;5030159;28;20524;-77
2022/01/26 07:43:21;;;;;;;102.90;29.75;;;0.10;99.90;;;;;;5037401;28;20047;-74
2022/01/26 07:45:47;;;;;;;100.07;30.30;;;-0.10;99.90;;;;;;5050079;28;20021;-74
2022/01/26 07:48:13;;;;;;;95.07;30.27;;;0.00;99.90;;;;;;5044649;28;20021;-75
2022/01/26 07:50:39;;;;;;;95.20;29.90;;;0.20;99.90;;;;;;5059718;28;20119;-74
2022/01/26 07:53:04;;;;;;;90.00;28.00;;;0.10;99.90;;;;;;5033097;28;20433;-74
2022/01/26 07:55:31;;;;;;;94.18;30.02;;;0.10;99.90;;;;;;5031808;28;20071;-74
2022/01/26 07:57:57;;;;;;;70.78;23.73;;;0.10;99.90;;;;;;5032610;28;20037;-75
2022/01/26 08:00:23;;;;;;;81.95;26.85;;;0.10;99.90;;;;;;5034430;28;20445;-74
2022/01/26 08:02:49;;;;;;;77.50;25.75;;;0.10;99.90;;;;;;5054286;28;20410;-75
2022/01/26 08:05:16;;;;;;;72.50;24.65;;;0.10;99.90;;;;;;5055481;28;20013;-75
2022/01/26 08:07:43;;;;;;;75.88;24.35;;;0.00;99.90;;;;;;5058220;28;20029;-75
2022/01/26 08:10:09;;;;;;;69.18;25.40;;;0.10;99.90;;;;;;5053821;28;20402;-74
2022/01/26 08:12:39;;;;;;;70.55;24.40;;;0.10;99.90;;;;;;5055713;28;20037;-74
2022/01/26 08:15:07;;;;;;;67.57;22.55;;;0.10;99.90;;;;;;5052735;28;20045;-73
2022/01/26 08:17:34;;;;;;;72.53;25.08;;;0.10;99.90;;;;;;5053790;28;20103;-74
2022/01/26 08:20:00;;;;;;;65.68;23.52;;;0.00;99.90;;;;;;5053153;28;20486;-75
2022/01/26 08:22:28;;;;;;;71.25;23.90;;;1.00;99.90;;;;;;5053727;28;20031;-76
2022/01/26 08:24:53;;;;;;;67.95;23.90;;;0.10;99.90;;;;;;5048095;28;20021;-74
2022/01/26 08:27:21;;;;;;;69.15;25.00;;;0.10;99.90;;;;;;5032612;28;20034;-74
2022/01/26 08:29:51;;;;;;;65.43;23.35;;;0.10;99.90;;;;;;5031657;28;20049;-74
2022/01/26 08:32:17;;;;;;;67.88;20.55;;;0.00;99.90;;;;;;5048030;28;20033;-75
2022/01/26 08:34:43;;;;;;;67.22;22.80;;;0.00;99.90;;;;;;5039861;28;20026;-74
2022/01/26 08:37:08;;;;;;;71.05;23.80;;;0.10;99.90;;;;;;5030029;28;20494;-74
2022/01/26 08:39:35;;;;;;;63.38;22.33;;;0.10;99.90;;;;;;5032804;28;20056;-74
2022/01/26 08:42:02;;;;;;;65.70;23.30;;;0.00;99.90;;;;;;5044240;28;20076;-74
2022/01/26 08:44:27;;;;;;;71.25;22.02;;;1.00;99.90;;;;;;5033497;28;20336;-74
2022/01/26 08:46:54;;;;;;;57.42;22.80;;;0.10;99.90;;;;;;5040519;28;20025;-75
2022/01/26 08:49:21;;;;;;;72.82;24.77;;;0.10;99.90;;;;;;5051458;28;20034;-75
2022/01/26 08:51:49;;;;;;;67.88;22.85;;;0.20;99.90;;;;;;5045909;28;20025;-75
2022/01/26 08:54:15;;;;;;;61.60;23.05;;;0.10;99.90;;;;;;5049502;28;20033;-75
2022/01/26 08:56:41;;;;;;;59.28;22.63;;;-0.10;99.90;;;;;;5033190;28;20220;-75
2022/01/26 08:59:06;;;;;;;64.07;23.65;;;0.30;99.90;;;;;;5048612;28;20029;-74
2022/01/26 09:01:32;;;;;;;59.30;22.50;;;0.10;99.90;;;;;;5071987;28;20037;-75
2022/01/26 09:03:58;;;;;;;48.75;20.48;;;0.00;99.90;;;;;;5054048;28;20029;-75
2022/01/26 09:06:23;;;;;;;58.67;22.02;;;0.00;99.90;;;;;;5038833;28;20175;-75
2022/01/26 09:08:58;;;;;;;61.40;23.05;;;0.00;99.90;;;;;;5052048;28;20079;-74
2022/01/26 09:11:24;;;;;;;57.08;23.48;;;0.10;99.90;;;;;;5048582;28;20059;-75
2022/01/26 09:13:55;;;;;;;58.20;21.67;;;0.00;99.90;;;;;;5052555;28;20033;-76
2022/01/26 09:16:23;;;;;;;52.92;21.50;;;0.10;99.90;;;;;;5040833;28;20509;-74
2022/01/26 09:18:55;;;;;;;55.55;21.02;;;0.60;99.90;;;;;;5043065;28;20042;-74
2022/01/26 09:21:21;;;;;;;55.33;23.70;;;0.30;99.90;;;;;;5032910;28;20396;-75
2022/01/26 09:23:47;;;;;;;50.17;19.63;;;1.40;99.90;;;;;;5032658;28;20053;-75
2022/01/26 09:26:14;;;;;;;49.40;21.50;;;0.10;99.90;;;;;;5035877;28;20497;-75
2022/01/26 09:28:40;;;;;;;51.72;20.77;;;-0.10;99.90;;;;;;5051735;28;20060;-73
2022/01/26 09:31:05;;;;;;;53.72;21.90;;;0.00;99.90;;;;;;5052510;28;20056;-74
2022/01/26 09:33:31;;;;;;;49.38;22.23;;;-0.10;99.90;;;;;;5052492;28;20104;-73
2022/01/26 09:35:57;;;;;;;51.65;22.15;;;0.10;99.90;;;;;;5050558;28;20561;-74
2022/01/26 09:38:22;;;;;;;44.90;19.05;;;0.10;99.90;;;;;;5071963;28;20044;-75
2022/01/26 09:40:49;;;;;;;45.42;20.45;;;0.20;99.90;;;;;;5055095;28;20057;-74
2022/01/26 09:43:17;;;;;;;47.30;20.85;;;0.10;99.90;;;;;;5032919;28;20025;-76
2022/01/26 09:45:46;;;;;;;46.17;19.17;;;0.30;99.90;;;;;;5044380;28;20037;-77
2022/01/26 09:48:13;;;;;;;47.83;21.50;;;0.10;99.90;;;;;;5052548;28;20559;-74
2022/01/26 09:50:43;;;;;;;44.97;20.15;;;0.10;99.90;;;;;;5051543;28;20025;-74
2022/01/26 09:53:10;;;;;;;48.22;18.77;;;0.10;99.90;;;;;;5052280;28;20033;-74
2022/01/26 09:55:41;;;;;;;43.20;19.58;;;0.10;99.90;;;;;;5042190;28;20053;-75
2022/01/26 09:58:07;;;;;;;46.85;20.63;;;0.10;99.90;;;;;;5050314;28;20029;-76
2022/01/26 10:00:33;;;;;;;40.72;18.52;;;0.20;99.90;;;;;;5054665;28;20102;-74
2022/01/26 10:03:04;;;;;;;39.67;18.25;;;0.30;99.90;;;;;;5066066;28;20021;-74
2022/01/26 10:05:44;;;;;;;40.38;20.40;;;0.30;99.90;;;;;;5045055;28;20033;-75
2022/01/26 10:16:19;;;;;;;46.83;18.85;;;0.30;99.90;;;;;;5051044;28;20068;-74
2022/01/26 10:18:44;;;;;;;40.83;18.15;;;0.30;99.90;;;;;;5031365;28;20029;-75
2022/01/26 10:21:10;;;;;;;42.22;15.85;;;0.40;99.90;;;;;;5031734;28;20509;-76
2022/01/26 10:23:42;;;;;;;47.28;18.67;;;1.10;99.90;;;;;;5031801;28;20034;-75
2022/01/26 10:26:19;;;;;;;33.90;14.75;;;0.30;99.90;;;;;;5049822;28;20025;-75
2022/01/26 10:28:47;;;;;;;42.05;17.73;;;0.40;99.90;;;;;;5049719;28;20044;-75
2022/01/26 10:31:16;;;;;;;42.33;17.42;;;0.40;99.90;;;;;;5051605;28;20410;-75
2022/01/26 10:34:04;;;;;;;42.50;18.23;;;0.40;99.90;;;;;;5054338;28;20021;-81
2022/01/26 10:36:50;;;;;;;36.65;15.38;;;0.40;99.90;;;;;;5054299;28;20522;-80
2022/01/26 10:39:29;;;;;;;37.38;16.27;;;0.30;99.90;;;;;;5057744;28;20659;-79
2022/01/26 10:42:03;;;;;;;38.90;15.40;;;0.30;99.90;;;;;;5060689;28;20021;-80
2022/01/26 10:44:41;;;;;;;39.53;17.98;;;0.40;99.90;;;;;;5051985;28;20028;-79
2022/01/26 10:47:09;;;;;;;38.80;16.60;;;0.40;99.90;;;;;;5059198;28;20509;-80
2022/01/26 10:52:36;;;;;;;38.47;16.30;;;0.50;99.90;;;;;;5043099;28;20437;-80
2022/01/26 10:55:03;;;;;;;36.95;15.40;;;1.30;99.90;;;;;;5049618;28;20029;-79
2022/01/26 10:57:29;;;;;;;37.63;17.45;;;0.40;99.90;;;;;;5069599;28;20465;-80
2022/01/26 10:59:55;;;;;;;33.45;15.27;;;0.40;99.90;;;;;;5068358;28;20064;-80
2022/01/26 11:02:27;;;;;;;36.03;15.07;;;2.10;99.90;;;;;;5070143;28;20040;-80
2022/01/26 11:04:53;;;;;;;;;;;0.60;99.90;;;;;;5063734;28;20052;-80
2022/01/26 11:07:19;;;;;;;33.47;15.52;;;0.60;99.90;;;;;;5066451;28;19950;-80
2022/01/26 11:09:47;;;;;;;32.65;15.48;;;0.70;99.90;;;;;;5083317;28;20078;-81
2022/01/26 11:12:15;;;;;;;33.22;16.35;;;0.60;99.90;;;;;;5086666;28;20481;-80
2022/01/26 11:14:45;;;;;;;34.13;13.70;;;2.70;99.90;;;;;;5087740;28;20032;-80
2022/01/26 11:17:27;;;;;;;30.40;13.57;;;0.70;99.90;;;;;;5064479;28;20096;-81
2022/01/26 11:19:56;;;;;;;29.48;14.25;;;0.80;99.90;;;;;;5049841;28;20052;-81
2022/01/26 11:22:27;;;;;;;26.17;13.02;;;0.60;99.90;;;;;;5050034;28;20022;-82
2022/01/26 11:24:53;;;;;;;22.45;12.55;;;0.70;99.90;;;;;;5053736;28;20557;-80
2022/01/26 11:27:19;;;;;;;23.77;11.43;;;0.70;99.90;;;;;;5056135;28;20037;-80
2022/01/26 11:29:50;;;;;;;25.45;13.30;;;0.70;99.90;;;;;;5047102;28;20022;-80
2022/01/26 11:32:35;;;;;;;25.58;12.48;;;0.60;99.90;;;;;;5046831;28;20049;-80
2022/01/26 11:35:08;;;;;;;23.52;11.88;;;0.60;99.90;;;;;;5047537;28;20029;-80
2022/01/26 11:37:42;;;;;;;28.30;14.35;;;0.60;99.90;;;;;;5048081;28;20022;-80
2022/01/26 11:45:35;;;;;;;23.00;13.48;;;0.60;99.90;;;;;;5056384;28;20043;-80
2022/01/26 11:48:21;;;;;;;20.90;11.57;;;0.80;99.90;;;;;;5066440;28;20021;-79
2022/01/26 11:50:58;;;;;;;22.40;12.30;;;0.90;99.90;;;;;;5064765;28;20082;-79
2022/01/26 11:53:25;;;;;;;25.27;11.95;;;0.70;99.90;;;;;;5047343;28;20367;-79
2022/01/26 11:55:53;;;;;;;24.27;11.40;;;0.70;99.90;;;;;;5063057;28;20627;-78
2022/01/26 11:58:32;;;;;;;23.25;12.35;;;1.40;99.90;;;;;;5061383;28;20033;-78
2022/01/26 12:01:29;;;;;;;22.27;12.45;;;0.70;99.90;;;;;;5044140;28;20044;-78
2022/01/26 12:04:02;;;;;;;27.48;12.48;;;0.90;99.90;;;;;;5040048;28;20033;-78
2022/01/26 12:06:28;;;;;;;27.73;13.70;;;0.80;99.90;;;;;;5049697;28;20021;-81
2022/01/26 12:08:56;;;;;;;26.17;14.00;;;1.30;99.90;;;;;;5061660;28;20021;-81
2022/01/26 12:11:23;;;;;;;30.65;14.85;;;0.90;99.90;;;;;;5083167;28;20032;-81
2022/01/26 12:14:01;;;;;;;32.28;14.93;;;0.70;99.90;;;;;;5081898;28;20020;-81
2022/01/26 12:16:35;;;;;;;28.98;15.35;;;0.80;99.90;;;;;;5072973;28;20048;-81
2022/01/26 12:38:20;;;;;;;34.15;14.07;;;0.90;99.90;;;;;;5080041;28;20095;-79
2022/01/26 12:43:42;;;;;;;35.13;14.77;;;0.70;99.90;;;;;;5079167;28;20032;-79
2022/01/26 12:46:14;;;;;;;30.17;13.07;;;0.90;99.90;;;;;;5059767;28;20017;-79
2022/01/26 12:48:42;;;;;;;29.77;14.43;;;0.90;99.90;;;;;;5063168;28;20026;-79
2022/01/26 12:51:10;;;;;;;31.85;13.35;;;1.00;99.90;;;;;;5032877;28;20037;-80
2022/01/26 12:53:37;;;;;;;27.40;12.38;;;0.90;99.90;;;;;;5048441;28;20025;-81
2022/01/26 12:56:06;;;;;;;29.10;13.13;;;0.90;99.90;;;;;;5047937;28;20043;-81
2022/01/26 12:58:36;;;;;;;28.88;12.43;;;1.00;99.90;;;;;;5052501;28;20047;-80
2022/01/26 13:01:07;;;;;;;30.50;13.23;;;0.80;99.90;;;;;;5047039;28;20018;-80
2022/01/26 13:03:35;;;;;;;29.85;13.52;;;0.90;99.90;;;;;;5049703;28;20032;-80
2022/01/26 13:06:14;;;;;;;28.23;12.40;;;0.90;99.90;;;;;;5055688;28;20391;-80
2022/01/26 13:08:51;;;;;;;26.95;11.73;;;0.90;99.90;;;;;;5062942;28;20033;-80
2022/01/26 13:11:25;;;;;;;29.55;12.38;;;2.60;99.90;;;;;;5050806;28;20037;-80
2022/01/26 13:14:19;;;;;;;22.45;10.88;;;0.80;99.90;;;;;;5045346;28;20094;-80
2022/01/26 13:17:11;;;;;;;21.73;9.50;;;2.40;99.90;;;;;;5050818;28;20047;-81
2022/01/26 13:25:27;;;;;;;22.17;10.07;;;1.10;99.90;;;;;;5054460;28;20029;-80
2022/01/26 13:28:10;;;;;;;24.50;10.10;;;1.80;99.90;;;;;;5055076;28;20025;-80
2022/01/26 13:44:17;;;;;;;22.58;10.07;;;1.00;99.90;;;;;;5051273;28;20506;-79
2022/01/26 13:59:53;;;;;;;22.02;10.25;;;0.90;99.90;;;;;;5030389;28;20626;-79
2022/01/26 14:02:08;;;;;;;23.67;10.57;;;1.60;99.90;;;;;;5030942;28;20069;-80
2022/01/26 14:04:34;;;;;;;26.90;12.57;;;1.10;99.90;;;;;;5035376;28;20038;-79
2022/01/26 14:07:00;;;;;;;25.45;11.80;;;1.00;99.90;;;;;;5041623;28;20121;-79
2022/01/26 14:09:25;;;;;;;22.52;11.80;;;1.10;99.90;;;;;;5033628;28;20486;-80
2022/01/26 14:11:52;;;;;;;54.17;26.98;;;1.10;99.90;;;;;;5041684;28;20029;-79
2022/01/26 14:14:30;;;;;;;27.75;13.50;;;1.10;99.90;;;;;;5054813;28;20022;-79
2022/01/26 14:16:58;;;;;;;22.38;12.02;;;1.10;99.90;;;;;;5055860;28;20029;-79
2022/01/26 14:26:48;;;;;;;24.25;12.00;;;1.00;99.90;;;;;;5035685;28;20064;-79
2022/01/26 14:29:20;;;;;;;22.85;11.60;;;1.10;99.90;;;;;;5040777;28;20110;-79
2022/01/26 14:39:34;;;;;;;18.75;9.40;;;1.30;99.90;;;;;;5052211;28;20491;-79
2022/01/26 14:40:34;;;;;;;15.18;8.63;;;1.20;99.90;;;;;;5054997;28;20033;-78
2022/01/26 14:51:24;;;;;;;19.73;10.00;;;1.10;99.90;;;;;;5058113;28;20048;-78
2022/01/26 14:54:17;;;;;;;16.67;9.65;;;1.10;99.90;;;;;;5043272;28;20102;-79
2022/01/26 15:58:34;;;;;;;21.38;10.18;;;0.90;99.90;;;;;;5040528;28;20430;-78
2022/01/26 16:20:41;;;;;;;20.70;9.75;;;2.40;99.90;;;;;;5055316;28;20025;-76
2022/01/26 18:04:07;;;;;;;21.67;10.45;;;0.80;99.90;;;;;;5058088;28;20056;-80
2022/01/26 18:49:15;;;;;;;18.33;9.70;;;0.60;99.90;;;;;;5039213;28;20026;-79
2022/01/26 18:51:43;;;;;;;19.35;9.52;;;0.80;99.90;;;;;;5038294;28;20029;-78
2022/01/26 18:54:10;;;;;;;18.63;9.10;;;0.60;99.90;;;;;;5037683;28;20472;-79
2022/01/26 18:56:37;;;;;;;14.70;8.65;;;0.40;99.90;;;;;;5044917;28;20120;-79
2022/01/26 18:59:04;;;;;;;20.48;11.50;;;0.60;99.90;;;;;;5044784;28;20026;-80
2022/01/26 19:01:29;;;;;;;20.30;9.50;;;0.60;99.90;;;;;;5044158;28;20039;-79
2022/01/26 19:03:55;;;;;;;19.23;9.57;;;0.50;99.90;;;;;;5046128;28;20476;-79
2022/01/26 19:06:20;;;;;;;19.75;10.38;;;0.40;99.90;;;;;;5038918;28;20028;-79
2022/01/26 19:08:46;;;;;;;21.52;10.60;;;0.40;99.90;;;;;;5034641;28;20556;-79
2022/01/26 19:11:12;;;;;;;23.13;9.25;;;0.50;99.90;;;;;;5033359;28;20461;-77
2022/01/26 19:13:41;;;;;;;19.63;10.38;;;2.10;99.90;;;;;;5035267;28;20030;-79
2022/01/26 19:16:18;;;;;;;20.35;10.18;;;0.40;99.90;;;;;;5040673;28;20467;-79
2022/01/26 19:24:44;;;;;;;19.35;9.43;;;0.40;99.90;;;;;;5045666;28;20532;-80
2022/01/26 19:27:20;;;;;;;18.50;8.55;;;0.30;99.90;;;;;;5064535;28;20059;-80
2022/01/26 19:30:03;;;;;;;20.50;9.18;;;0.30;99.90;;;;;;5058018;28;20033;-80
2022/01/26 19:46:01;;;;;;;16.40;8.07;;;0.30;99.90;;;;;;5057772;28;20032;-80
2022/01/26 19:51:11;;;;;;;18.33;8.45;;;0.10;99.90;;;;;;5054337;28;20659;-79
2022/01/26 19:53:38;;;;;;;20.25;8.88;;;0.20;99.90;;;;;;5051206;28;20490;-80
2022/01/26 19:56:04;;;;;;;15.50;8.23;;;0.10;99.90;;;;;;5049756;28;20083;-79
2022/01/26 19:58:29;;;;;;;19.67;8.85;;;0.20;99.90;;;;;;5052471;28;20029;-78